Time;durP1;ratioP1;P1;durP2;ratioP2;P2;SDS_P1;SDS_P2;PMS_P1;PMS_P2;Temp;Humidity;BMP_temperature;BMP_pressure;BME280_temperature;BME280_humidity;BME280_pressure;Samples;Min_cycle;Max_cycle;Signal;HPM_P1;HPM_P2
2023/12/04 00:02:26;;;;;;;13.80;8.13;;;6.60;96.70;;;;;;4874252;29;20132;-53
2023/12/04 00:04:56;;;;;;;14.75;8.73;;;6.40;96.70;;;;;;4871853;29;20049;-53
2023/12/04 00:07:26;;;;;;;14.13;7.68;;;6.40;96.70;;;;;;4873518;29;20052;-53
2023/12/04 00:09:55;;;;;;;10.43;6.65;;;6.30;96.70;;;;;;4878956;29;20431;-53
2023/12/04 00:12:27;;;;;;;13.27;7.40;;;6.30;96.70;;;;;;4871963;29;20041;-53
2023/12/04 00:14:56;;;;;;;11.70;5.80;;;6.40;96.70;;;;;;4880785;29;20060;-54
2023/12/04 00:17:26;;;;;;;10.27;6.60;;;6.40;96.70;;;;;;4878583;29;20048;-53
2023/12/04 00:19:56;;;;;;;13.60;6.90;;;6.30;96.70;;;;;;4872495;29;20072;-52
2023/12/04 00:22:29;;;;;;;14.35;6.93;;;6.30;96.70;;;;;;4870782;29;20147;-53
2023/12/04 00:24:58;;;;;;;10.57;6.80;;;6.50;96.70;;;;;;4873498;29;20545;-54
2023/12/04 00:27:27;;;;;;;9.88;5.90;;;6.50;96.70;;;;;;4875686;29;20468;-53
2023/12/04 00:29:56;;;;;;;9.10;5.00;;;6.40;96.70;;;;;;4872276;29;20059;-54
2023/12/04 00:32:26;;;;;;;6.28;3.72;;;6.40;96.70;;;;;;4874071;29;20090;-52
2023/12/04 00:34:55;;;;;;;5.78;3.85;;;6.40;96.70;;;;;;4879032;29;20530;-54
2023/12/04 00:37:24;;;;;;;6.18;3.75;;;6.40;96.70;;;;;;4874223;29;20060;-53
2023/12/04 00:39:54;;;;;;;8.32;3.97;;;6.40;96.70;;;;;;4873358;29;20063;-53
2023/12/04 00:42:23;;;;;;;9.27;4.72;;;6.40;96.70;;;;;;4885419;29;20036;-53
2023/12/04 00:44:53;;;;;;;7.13;3.20;;;6.40;96.70;;;;;;4906128;29;20052;-54
2023/12/04 00:47:22;;;;;;;8.40;3.70;;;6.30;96.70;;;;;;4871156;29;20055;-53
2023/12/04 00:49:52;;;;;;;5.70;2.65;;;6.20;96.70;;;;;;4895448;29;20059;-53
2023/12/04 00:52:21;;;;;;;4.22;2.33;;;6.20;96.70;;;;;;4871999;29;20524;-53
2023/12/04 00:54:49;;;;;;;2.97;2.00;;;6.30;96.70;;;;;;4875383;29;20055;-53
2023/12/04 00:57:20;;;;;;;5.10;2.83;;;6.30;96.70;;;;;;4872646;29;20089;-53
2023/12/04 00:59:53;;;;;;;2.80;1.73;;;6.30;96.70;;;;;;4894713;29;20059;-53
2023/12/04 01:02:22;;;;;;;3.63;2.10;;;6.30;96.70;;;;;;4887283;29;20511;-54
2023/12/04 01:04:52;;;;;;;3.25;1.92;;;6.30;96.70;;;;;;4888906;29;20052;-53
2023/12/04 01:07:21;;;;;;;4.80;2.13;;;6.30;96.70;;;;;;4873023;29;20151;-54
2023/12/04 01:09:49;;;;;;;3.22;1.95;;;6.30;96.70;;;;;;4888501;29;20052;-53
2023/12/04 01:12:21;;;;;;;5.85;2.25;;;6.30;96.70;;;;;;4873206;29;20041;-53
2023/12/04 01:14:51;;;;;;;3.95;2.45;;;6.20;96.70;;;;;;4879250;29;20146;-53
2023/12/04 01:17:20;;;;;;;6.00;2.80;;;6.20;96.70;;;;;;4885923;29;20456;-53
2023/12/04 01:19:50;;;;;;;4.53;2.72;;;6.10;96.70;;;;;;4878925;29;20049;-54
2023/12/04 01:22:20;;;;;;;4.43;2.08;;;6.00;96.70;;;;;;4870881;29;20044;-53
2023/12/04 01:24:48;;;;;;;4.65;2.45;;;5.90;96.70;;;;;;4889387;29;20444;-54
2023/12/04 01:27:19;;;;;;;4.90;2.30;;;5.80;96.70;;;;;;4870241;29;20050;-53
2023/12/04 01:29:50;;;;;;;4.28;2.30;;;5.80;96.70;;;;;;4873401;29;20048;-53
2023/12/04 01:32:20;;;;;;;5.70;2.30;;;5.70;96.70;;;;;;4871314;29;20087;-53
2023/12/04 01:34:49;;;;;;;3.08;2.10;;;5.70;96.70;;;;;;4886982;29;20085;-53
2023/12/04 01:37:18;;;;;;;4.35;2.40;;;5.60;96.70;;;;;;4887582;29;20463;-53
2023/12/04 01:39:46;;;;;;;4.05;2.10;;;5.70;96.70;;;;;;4889604;29;20839;-53
2023/12/04 01:42:19;;;;;;;3.47;2.00;;;5.60;96.70;;;;;;4873673;29;20048;-53
2023/12/04 01:44:50;;;;;;;5.53;2.30;;;5.70;96.70;;;;;;4904538;29;20062;-53
2023/12/04 01:47:21;;;;;;;4.38;2.03;;;5.60;96.70;;;;;;4889431;29;20049;-53
2023/12/04 01:49:51;;;;;;;2.60;2.00;;;5.70;96.70;;;;;;4868271;29;20108;-53
2023/12/04 01:52:20;;;;;;;2.78;1.80;;;5.80;96.70;;;;;;4888966;29;20506;-53
2023/12/04 01:54:49;;;;;;;3.92;2.05;;;5.80;96.70;;;;;;4877224;29;20040;-54
2023/12/04 01:57:18;;;;;;;2.40;1.70;;;5.80;96.70;;;;;;4866835;29;20084;-53
2023/12/04 01:59:49;;;;;;;4.18;2.58;;;5.80;96.70;;;;;;4856416;29;20090;-53
2023/12/04 02:02:20;;;;;;;2.60;2.08;;;5.70;96.70;;;;;;4835249;29;20448;-53
2023/12/04 02:04:50;;;;;;;2.58;1.83;;;5.80;96.70;;;;;;4853043;29;20152;-53
2023/12/04 02:07:19;;;;;;;3.17;1.90;;;5.70;96.70;;;;;;4849966;29;20528;-53
2023/12/04 02:09:47;;;;;;;4.80;2.10;;;5.80;96.70;;;;;;4858275;29;20516;-53
2023/12/04 02:12:17;;;;;;;2.83;2.05;;;5.80;96.70;;;;;;4848510;29;20049;-53
2023/12/04 02:14:48;;;;;;;2.65;1.88;;;5.80;96.70;;;;;;4857883;29;20611;-53
2023/12/04 02:17:22;;;;;;;3.08;2.10;;;5.80;96.70;;;;;;4848120;29;20058;-53
2023/12/04 02:19:54;;;;;;;3.28;2.13;;;5.70;96.70;;;;;;4844835;29;20166;-53
2023/12/04 02:22:23;;;;;;;3.38;1.75;;;5.60;96.70;;;;;;4849471;29;20105;-53
2023/12/04 02:24:58;;;;;;;3.53;1.65;;;5.60;96.70;;;;;;4863339;29;20565;-53
2023/12/04 02:27:35;;;;;;;2.92;2.30;;;5.60;96.70;;;;;;4862169;29;20053;-53
2023/12/04 02:30:08;;;;;;;3.53;2.08;;;5.50;96.70;;;;;;4879835;29;20041;-53
2023/12/04 02:32:38;;;;;;;3.10;1.83;;;5.40;96.70;;;;;;4876540;29;20052;-52
2023/12/04 02:35:09;;;;;;;3.53;2.38;;;5.30;96.70;;;;;;4893927;29;20534;-53
2023/12/04 02:37:39;;;;;;;2.85;1.70;;;5.30;96.70;;;;;;4867534;29;20067;-53
2023/12/04 02:40:12;;;;;;;5.30;2.30;;;5.30;96.70;;;;;;4883645;29;20060;-53
2023/12/04 02:42:41;;;;;;;4.18;2.00;;;5.20;96.70;;;;;;4895005;29;20139;-53
2023/12/04 02:45:09;;;;;;;4.60;2.08;;;5.20;96.70;;;;;;4879667;29;20536;-53
2023/12/04 02:47:39;;;;;;;3.55;2.00;;;5.10;96.70;;;;;;4868148;29;20060;-53
2023/12/04 02:50:08;;;;;;;3.13;2.10;;;5.10;96.70;;;;;;4843601;29;20076;-53
2023/12/04 02:58:10;;;;;;;3.05;2.05;;;5.00;96.70;;;;;;4839112;29;20056;-54
2023/12/04 03:00:39;;;;;;;3.22;1.70;;;5.00;96.70;;;;;;4810403;29;20401;-53
2023/12/04 03:03:07;;;;;;;3.17;2.08;;;5.00;96.70;;;;;;4823706;29;20097;-54
2023/12/04 03:05:37;;;;;;;3.45;2.05;;;5.00;96.70;;;;;;4823701;29;20073;-54
2023/12/04 03:08:05;;;;;;;3.28;2.40;;;5.00;96.70;;;;;;4807418;29;20531;-54
2023/12/04 03:10:33;;;;;;;4.40;2.20;;;5.00;96.70;;;;;;4792485;29;20096;-54
2023/12/04 03:13:02;;;;;;;3.58;1.95;;;5.00;96.70;;;;;;4812355;29;20065;-53
2023/12/04 03:15:32;;;;;;;4.47;1.95;;;5.00;96.70;;;;;;4807685;29;20497;-54
2023/12/04 03:18:01;;;;;;;3.38;2.03;;;5.00;96.70;;;;;;4825254;29;20057;-53
2023/12/04 03:20:33;;;;;;;4.53;2.35;;;5.00;96.70;;;;;;4825577;29;20154;-54
2023/12/04 03:23:02;;;;;;;3.95;2.15;;;5.00;96.70;;;;;;4824659;29;20066;-53
2023/12/04 03:25:30;;;;;;;3.70;2.08;;;5.00;96.70;;;;;;4823103;29;20677;-53
2023/12/04 03:28:00;;;;;;;3.58;2.08;;;5.00;96.70;;;;;;4824243;29;20042;-54
2023/12/04 03:30:29;;;;;;;3.30;2.22;;;5.00;96.70;;;;;;4810044;29;20069;-54
2023/12/04 03:32:59;;;;;;;4.22;2.30;;;5.00;96.70;;;;;;4824942;29;20412;-53
2023/12/04 03:35:28;;;;;;;4.32;2.20;;;5.00;96.70;;;;;;4819233;29;20576;-53
2023/12/04 03:37:58;;;;;;;6.88;2.80;;;5.00;96.70;;;;;;4807363;29;20045;-54
2023/12/04 03:40:27;;;;;;;4.28;2.45;;;5.10;96.70;;;;;;4822789;29;20568;-54
2023/12/04 03:42:55;;;;;;;4.43;2.55;;;5.20;96.70;;;;;;4812400;29;20041;-54
2023/12/04 03:45:23;;;;;;;4.32;2.25;;;5.20;96.70;;;;;;4824367;29;20050;-54
2023/12/04 03:47:51;;;;;;;4.45;3.05;;;5.20;96.70;;;;;;4825240;29;20810;-54
2023/12/04 03:50:22;;;;;;;3.70;2.78;;;5.20;96.70;;;;;;4806670;29;20540;-54
2023/12/04 03:52:51;;;;;;;3.35;2.28;;;5.20;96.70;;;;;;4839337;29;20050;-54
2023/12/04 03:55:21;;;;;;;4.88;2.60;;;5.20;96.70;;;;;;4818224;29;20054;-54
2023/12/04 03:57:50;;;;;;;5.93;2.72;;;5.30;96.70;;;;;;4823475;29;20062;-53
2023/12/04 04:00:22;;;;;;;3.38;2.42;;;5.30;96.70;;;;;;4822247;29;20077;-53
2023/12/04 04:02:52;;;;;;;6.38;2.58;;;5.20;96.70;;;;;;4824607;29;20512;-54
2023/12/04 04:05:22;;;;;;;3.70;2.40;;;5.10;96.70;;;;;;4854083;29;20057;-54
2023/12/04 04:07:51;;;;;;;7.72;2.72;;;5.10;96.70;;;;;;4809383;29;20061;-54
2023/12/04 04:10:20;;;;;;;4.00;2.03;;;5.10;96.70;;;;;;4823691;29;20041;-54
2023/12/04 04:12:48;;;;;;;4.60;2.35;;;5.10;96.70;;;;;;4808071;29;20102;-54
2023/12/04 04:15:20;;;;;;;3.67;1.90;;;5.00;96.70;;;;;;4808705;29;20069;-53
2023/12/04 04:17:48;;;;;;;3.97;2.10;;;4.90;96.70;;;;;;4815250;29;20106;-54
2023/12/04 04:20:17;;;;;;;2.88;1.90;;;4.90;96.70;;;;;;4824279;29;20046;-54
2023/12/04 04:22:48;;;;;;;4.13;2.08;;;4.90;96.70;;;;;;4806165;29;20433;-54
2023/12/04 04:25:16;;;;;;;3.83;2.08;;;4.90;96.70;;;;;;4822410;29;20324;-53
2023/12/04 04:27:46;;;;;;;3.67;2.00;;;4.90;96.70;;;;;;4822692;29;20533;-54
2023/12/04 04:30:17;;;;;;;3.67;1.92;;;4.90;96.70;;;;;;4839032;29;20144;-52
2023/12/04 04:32:46;;;;;;;4.88;2.38;;;5.00;96.70;;;;;;4809122;29;20077;-53
2023/12/04 04:35:15;;;;;;;2.55;2.20;;;4.90;96.70;;;;;;4823826;29;20080;-57
2023/12/04 04:37:51;;;;;;;3.53;1.88;;;4.80;96.70;;;;;;4823440;29;20050;-54
2023/12/04 04:40:21;;;;;;;4.38;2.47;;;4.80;96.70;;;;;;4822090;29;20085;-53
2023/12/04 04:42:49;;;;;;;2.80;1.88;;;4.80;96.70;;;;;;4810194;29;20464;-54
2023/12/04 04:45:18;;;;;;;2.47;2.10;;;4.80;96.70;;;;;;4793883;29;20053;-54
2023/12/04 04:47:47;;;;;;;4.70;1.92;;;4.80;96.70;;;;;;4824401;29;20049;-54
2023/12/04 04:50:16;;;;;;;2.80;1.70;;;4.80;96.70;;;;;;4808638;29;20692;-54
2023/12/04 04:52:47;;;;;;;2.97;2.13;;;4.80;96.70;;;;;;4808656;29;20058;-54
2023/12/04 04:55:20;;;;;;;3.15;1.85;;;4.70;96.70;;;;;;4829599;29;20149;-54
2023/12/04 04:58:09;;;;;;;2.58;2.00;;;4.70;96.70;;;;;;4808293;29;20046;-53
2023/12/04 05:00:37;;;;;;;4.10;2.28;;;4.70;96.70;;;;;;4826256;29;20154;-54
2023/12/04 05:03:07;;;;;;;3.42;2.20;;;4.70;96.70;;;;;;4823798;29;20452;-53
2023/12/04 05:05:35;;;;;;;3.38;1.90;;;4.70;96.70;;;;;;4823916;29;20113;-54
2023/12/04 05:08:04;;;;;;;3.33;1.92;;;4.80;96.70;;;;;;4823661;29;20046;-53
2023/12/04 05:10:35;;;;;;;4.10;2.47;;;4.70;96.70;;;;;;4808253;29;20061;-54
2023/12/04 05:13:05;;;;;;;2.70;2.08;;;4.70;96.70;;;;;;4806363;29;20150;-54
2023/12/04 05:15:36;;;;;;;4.10;2.00;;;4.60;96.70;;;;;;4808235;29;20058;-54
2023/12/04 05:18:08;;;;;;;3.72;2.20;;;4.60;96.70;;;;;;4823229;29;20072;-53
2023/12/04 05:20:36;;;;;;;3.03;2.00;;;4.60;96.70;;;;;;4816357;29;20526;-53
2023/12/04 05:23:04;;;;;;;2.28;1.88;;;4.60;96.70;;;;;;4823540;29;20038;-54
2023/12/04 05:25:36;;;;;;;4.22;2.30;;;4.60;96.70;;;;;;4821663;29;20055;-53
2023/12/04 05:28:14;;;;;;;3.20;2.20;;;4.70;96.70;;;;;;4808046;29;20050;-53
2023/12/04 05:30:43;;;;;;;5.47;2.30;;;4.80;96.70;;;;;;4822641;29;20050;-53
2023/12/04 05:33:12;;;;;;;2.75;2.00;;;4.70;96.70;;;;;;4823091;29;20060;-54
2023/12/04 05:35:42;;;;;;;4.75;2.38;;;4.60;96.70;;;;;;4838760;29;20045;-53
2023/12/04 05:38:13;;;;;;;5.82;2.20;;;4.60;96.70;;;;;;4808334;29;20046;-53
2023/12/04 05:40:43;;;;;;;3.85;2.33;;;4.60;96.70;;;;;;4820274;29;20050;-54
2023/12/04 05:43:12;;;;;;;3.33;2.03;;;4.70;96.70;;;;;;4820704;29;20095;-53
2023/12/04 05:45:41;;;;;;;4.55;2.40;;;4.70;96.70;;;;;;4822989;29;20041;-53
2023/12/04 05:48:11;;;;;;;3.33;2.38;;;4.70;96.70;;;;;;4805980;29;20046;-54
2023/12/04 05:50:41;;;;;;;4.05;2.45;;;4.70;96.70;;;;;;4804871;29;20510;-54
2023/12/04 05:53:09;;;;;;;4.68;2.92;;;4.60;96.70;;;;;;4815240;29;20060;-53
2023/12/04 05:55:38;;;;;;;5.00;2.20;;;4.60;96.70;;;;;;4807375;29;20189;-53
2023/12/04 05:58:08;;;;;;;4.43;2.30;;;4.70;96.70;;;;;;4812344;29;20153;-54
2023/12/04 06:00:38;;;;;;;3.00;2.05;;;4.70;96.70;;;;;;4822910;29;20054;-54
2023/12/04 06:03:07;;;;;;;2.55;2.00;;;4.70;96.70;;;;;;4856776;29;20122;-53
2023/12/04 06:05:36;;;;;;;3.28;1.85;;;4.60;96.70;;;;;;4811354;29;20080;-54
2023/12/04 06:08:06;;;;;;;4.63;2.28;;;4.60;96.70;;;;;;4811125;29;20134;-54
2023/12/04 06:10:35;;;;;;;3.50;2.25;;;4.70;96.70;;;;;;4816043;29;20080;-53
2023/12/04 06:13:04;;;;;;;4.70;1.90;;;4.80;96.70;;;;;;4824520;29;20413;-54
2023/12/04 06:15:33;;;;;;;2.70;1.98;;;4.80;96.70;;;;;;4824435;29;20077;-54
2023/12/04 06:18:04;;;;;;;6.18;2.15;;;4.80;96.70;;;;;;4826161;29;20073;-54
2023/12/04 06:20:34;;;;;;;4.50;2.40;;;4.80;96.70;;;;;;4816471;29;20058;-54
2023/12/04 06:23:03;;;;;;;3.75;2.30;;;4.80;96.70;;;;;;4824990;29;20129;-54
2023/12/04 06:25:33;;;;;;;3.33;2.42;;;4.80;96.70;;;;;;4803179;29;20904;-53
2023/12/04 06:28:01;;;;;;;5.18;2.25;;;4.80;96.70;;;;;;4802391;29;20051;-54
2023/12/04 06:30:30;;;;;;;3.83;2.10;;;4.70;96.70;;;;;;4787866;29;20098;-53
2023/12/04 06:33:00;;;;;;;3.88;1.90;;;4.70;96.70;;;;;;4800151;29;20063;-53
2023/12/04 06:35:30;;;;;;;4.25;2.45;;;4.70;96.70;;;;;;4787209;29;20051;-54
2023/12/04 06:38:04;;;;;;;4.60;2.50;;;4.70;96.70;;;;;;4803074;29;20069;-54
2023/12/04 06:40:33;;;;;;;4.07;2.45;;;4.70;96.70;;;;;;4803157;29;20061;-53
2023/12/04 06:43:02;;;;;;;3.30;2.22;;;4.80;96.70;;;;;;4788028;29;20057;-53
2023/12/04 06:45:32;;;;;;;3.97;2.22;;;4.80;96.70;;;;;;4773757;29;20522;-53
2023/12/04 06:48:04;;;;;;;3.60;2.55;;;4.80;96.70;;;;;;4802987;29;20116;-53
2023/12/04 06:50:34;;;;;;;5.88;2.38;;;4.80;96.70;;;;;;4787598;29;20085;-53
2023/12/04 06:53:02;;;;;;;5.80;2.05;;;4.80;96.70;;;;;;4802334;29;20134;-53
2023/12/04 06:55:31;;;;;;;3.63;2.70;;;4.90;96.70;;;;;;4787943;29;20760;-53
2023/12/04 06:58:01;;;;;;;3.50;2.30;;;4.90;96.70;;;;;;4787152;29;20138;-52
2023/12/04 07:00:30;;;;;;;3.55;2.28;;;4.90;96.70;;;;;;4802767;29;20143;-54
2023/12/04 07:03:03;;;;;;;7.45;2.38;;;5.00;96.70;;;;;;4830315;29;20110;-54
2023/12/04 07:05:31;;;;;;;7.78;3.10;;;5.00;96.70;;;;;;4825237;29;20109;-54
2023/12/04 07:08:01;;;;;;;7.57;4.72;;;5.10;96.70;;;;;;4823115;29;20525;-54
2023/12/04 07:10:31;;;;;;;8.18;4.90;;;5.10;96.70;;;;;;4827658;29;20085;-53
2023/12/04 07:13:02;;;;;;;7.18;4.15;;;5.20;96.70;;;;;;4809166;29;20079;-53
2023/12/04 07:15:32;;;;;;;7.70;3.42;;;5.20;96.70;;;;;;4824227;29;20402;-54
2023/12/04 07:18:01;;;;;;;6.75;3.13;;;5.20;96.70;;;;;;4809678;29;20062;-54
2023/12/04 07:20:31;;;;;;;8.85;4.00;;;5.20;96.70;;;;;;4811147;29;20117;-54
2023/12/04 07:23:00;;;;;;;10.93;5.75;;;5.30;96.70;;;;;;4811484;29;20050;-53
2023/12/04 07:25:28;;;;;;;9.30;5.53;;;5.30;96.70;;;;;;4810256;29;20540;-53
2023/12/04 07:28:00;;;;;;;6.72;3.90;;;5.20;96.70;;;;;;4824675;29;20054;-53
2023/12/04 07:30:29;;;;;;;11.55;5.18;;;5.20;96.70;;;;;;4823470;29;20149;-53
2023/12/04 07:32:59;;;;;;;7.95;3.13;;;5.20;96.70;;;;;;4809131;29;20120;-53
2023/12/04 07:35:28;;;;;;;5.82;3.63;;;5.10;96.70;;;;;;4809575;29;20132;-53
2023/12/04 07:37:59;;;;;;;6.25;3.83;;;5.20;96.70;;;;;;4824710;29;20061;-54
2023/12/04 07:40:30;;;;;;;4.05;3.28;;;5.10;96.70;;;;;;4809852;29;20086;-53
2023/12/04 07:42:59;;;;;;;13.60;4.03;;;5.10;96.70;;;;;;4806771;29;20103;-53
2023/12/04 07:45:28;;;;;;;6.70;3.97;;;5.20;96.70;;;;;;4822743;29;20049;-54
2023/12/04 07:47:57;;;;;;;7.53;3.85;;;5.10;96.70;;;;;;4809886;29;20045;-53
2023/12/04 07:50:26;;;;;;;6.88;3.92;;;5.20;96.70;;;;;;4824261;29;20420;-54
2023/12/04 07:52:55;;;;;;;6.85;3.80;;;5.20;96.70;;;;;;4839371;29;20045;-53
2023/12/04 07:55:29;;;;;;;7.88;3.83;;;5.20;96.70;;;;;;4824425;29;20115;-54
2023/12/04 07:57:58;;;;;;;8.07;3.13;;;5.10;96.70;;;;;;4823476;29;20058;-53
2023/12/04 08:00:28;;;;;;;4.53;3.30;;;5.10;96.70;;;;;;4809697;29;20585;-56
2023/12/04 08:02:56;;;;;;;4.47;2.88;;;5.10;96.70;;;;;;4854494;29;20688;-54
2023/12/04 08:05:27;;;;;;;6.93;3.22;;;5.10;96.70;;;;;;4823895;29;20124;-54
2023/12/04 08:07:55;;;;;;;5.07;3.13;;;5.10;96.70;;;;;;4829629;29;20057;-54
2023/12/04 08:10:25;;;;;;;8.80;2.90;;;5.10;96.70;;;;;;4824985;29;20038;-54
2023/12/04 08:12:56;;;;;;;4.43;2.95;;;5.20;96.70;;;;;;4814668;29;20119;-54
2023/12/04 08:15:25;;;;;;;9.15;3.65;;;5.20;96.70;;;;;;4811480;29;20046;-54
2023/12/04 08:17:55;;;;;;;4.88;2.90;;;5.20;96.70;;;;;;4823185;29;20569;-53
2023/12/04 08:20:24;;;;;;;5.07;3.20;;;5.30;96.70;;;;;;4822714;29;20117;-54
2023/12/04 08:23:03;;;;;;;6.10;4.13;;;5.30;96.70;;;;;;4824303;29;20060;-54
2023/12/04 08:25:32;;;;;;;4.80;3.30;;;5.30;96.70;;;;;;4824122;29;20083;-54
2023/12/04 08:28:04;;;;;;;4.75;3.25;;;5.40;96.70;;;;;;4809236;29;20038;-55
2023/12/04 08:30:33;;;;;;;5.80;3.35;;;5.50;96.70;;;;;;4809769;29;20061;-55
2023/12/04 08:33:03;;;;;;;5.07;3.20;;;5.40;96.70;;;;;;4821141;29;20127;-55
2023/12/04 08:35:33;;;;;;;7.15;3.42;;;5.30;96.70;;;;;;4823796;29;20038;-54
2023/12/04 08:38:02;;;;;;;4.78;3.40;;;5.40;96.70;;;;;;4824508;29;20053;-54
2023/12/04 08:40:33;;;;;;;5.38;3.50;;;5.60;96.70;;;;;;4809814;29;20069;-54
2023/12/04 08:43:07;;;;;;;6.13;3.95;;;5.70;96.70;;;;;;4823893;29;20053;-54
2023/12/04 08:45:37;;;;;;;8.85;4.32;;;5.80;96.70;;;;;;4828832;29;20465;-55
2023/12/04 08:48:07;;;;;;;7.20;4.43;;;5.90;96.70;;;;;;4823069;29;20054;-55
2023/12/04 08:50:38;;;;;;;10.05;4.35;;;6.00;96.70;;;;;;4807173;29;20058;-55
2023/12/04 08:53:06;;;;;;;7.65;4.88;;;6.00;96.70;;;;;;4806217;29;20050;-55
2023/12/04 08:55:36;;;;;;;6.40;4.90;;;6.00;96.70;;;;;;4823867;29;20688;-54
2023/12/04 08:58:07;;;;;;;9.65;4.82;;;6.00;96.70;;;;;;4823465;29;20428;-54
2023/12/04 09:00:37;;;;;;;6.85;4.72;;;6.00;96.70;;;;;;4822839;29;20066;-54
2023/12/04 09:03:07;;;;;;;8.15;4.18;;;6.00;96.70;;;;;;4800673;29;20619;-54
2023/12/04 09:05:45;;;;;;;14.18;7.85;;;6.10;96.70;;;;;;4815356;29;20073;-54
2023/12/04 09:08:14;;;;;;;12.32;7.90;;;6.20;96.70;;;;;;4771233;29;20108;-54
2023/12/04 09:10:47;;;;;;;10.70;7.45;;;6.20;96.70;;;;;;4787402;29;20069;-54
2023/12/04 09:13:38;;;;;;;15.48;7.18;;;6.20;96.70;;;;;;4788474;29;20585;-53
2023/12/04 09:16:08;;;;;;;9.55;6.40;;;6.30;96.70;;;;;;4793936;29;20173;-54
2023/12/04 09:18:39;;;;;;;9.85;6.32;;;6.40;96.70;;;;;;4777566;29;20118;-55
2023/12/04 09:21:08;;;;;;;10.30;5.88;;;6.50;96.70;;;;;;4785317;29;20051;-54
2023/12/04 09:23:37;;;;;;;9.32;6.63;;;6.50;96.70;;;;;;4800757;29;20142;-55
2023/12/04 09:26:07;;;;;;;11.68;5.93;;;6.60;96.70;;;;;;4801379;29;20038;-54
2023/12/04 09:28:37;;;;;;;7.32;5.45;;;6.60;96.70;;;;;;4784497;29;20059;-54
2023/12/04 09:31:07;;;;;;;7.43;5.05;;;6.70;96.70;;;;;;4771183;29;20058;-54
2023/12/04 09:33:36;;;;;;;7.78;5.38;;;6.80;96.70;;;;;;4815327;29;20055;-53
2023/12/04 09:36:06;;;;;;;7.38;5.60;;;6.80;96.70;;;;;;4770309;29;20050;-54
2023/12/04 09:38:36;;;;;;;8.43;5.40;;;6.80;96.70;;;;;;4803562;29;20609;-54
2023/12/04 09:41:09;;;;;;;7.70;5.35;;;6.80;96.70;;;;;;4817194;29;20049;-53
2023/12/04 09:43:41;;;;;;;9.55;5.07;;;6.90;96.70;;;;;;4812843;29;20067;-53
2023/12/04 09:46:11;;;;;;;7.43;5.00;;;6.90;96.70;;;;;;4820193;29;20049;-54
2023/12/04 09:48:42;;;;;;;8.13;5.32;;;6.90;96.70;;;;;;4827436;29;20053;-53
2023/12/04 09:51:16;;;;;;;6.80;4.53;;;7.00;96.70;;;;;;4843949;29;20132;-54
2023/12/04 09:53:48;;;;;;;7.20;4.68;;;6.90;96.70;;;;;;4805760;29;20050;-54
2023/12/04 09:56:18;;;;;;;6.15;4.47;;;6.90;96.70;;;;;;4829042;29;20060;-54
2023/12/04 09:58:57;;;;;;;7.32;4.90;;;6.90;96.70;;;;;;4825929;29;20061;-54
2023/12/04 10:01:29;;;;;;;8.45;6.43;;;7.00;96.70;;;;;;4826287;29;20062;-54
2023/12/04 10:03:59;;;;;;;7.75;5.43;;;7.10;96.70;;;;;;4807733;29;20062;-53
2023/12/04 10:06:31;;;;;;;10.73;5.70;;;7.10;96.70;;;;;;4845616;29;20094;-54
2023/12/04 10:08:59;;;;;;;7.03;4.90;;;7.20;96.70;;;;;;4824331;29;20054;-53
2023/12/04 10:11:28;;;;;;;8.95;6.07;;;7.30;96.70;;;;;;4825784;29;20129;-53
2023/12/04 10:13:58;;;;;;;8.60;6.05;;;7.40;96.70;;;;;;4815137;29;20153;-52
2023/12/04 10:16:36;;;;;;;10.32;5.82;;;7.50;96.70;;;;;;4816586;29;20049;-54
2023/12/04 10:19:23;;;;;;;8.63;5.97;;;7.60;96.70;;;;;;4825894;29;20584;-53
2023/12/04 10:21:53;;;;;;;7.40;5.65;;;7.70;96.70;;;;;;4824990;29;20058;-53
2023/12/04 10:24:29;;;;;;;9.63;6.30;;;7.70;96.70;;;;;;4820311;29;20049;-54
2023/12/04 10:27:00;;;;;;;10.05;5.72;;;7.70;96.70;;;;;;4807987;29;20074;-53
2023/12/04 10:29:42;;;;;;;7.05;4.88;;;7.60;96.70;;;;;;4818672;29;20050;-54
2023/12/04 10:32:11;;;;;;;8.63;5.20;;;7.60;96.70;;;;;;4807391;29;20740;-53
2023/12/04 10:34:42;;;;;;;7.13;5.30;;;7.60;96.70;;;;;;4818670;29;20062;-53
2023/12/04 10:37:13;;;;;;;7.78;4.88;;;7.60;96.70;;;;;;4814032;29;20061;-54
2023/12/04 10:39:49;;;;;;;7.28;4.70;;;7.60;96.70;;;;;;4823298;29;20106;-55
2023/12/04 10:42:27;;;;;;;6.90;5.50;;;7.60;96.70;;;;;;4822136;29;20085;-53
2023/12/04 10:44:59;;;;;;;6.65;5.15;;;7.60;96.70;;;;;;4808535;29;20121;-54
2023/12/04 10:47:32;;;;;;;7.80;4.82;;;7.70;96.70;;;;;;4817213;29;20464;-54
2023/12/04 10:50:03;;;;;;;8.07;5.50;;;7.70;96.70;;;;;;4830034;29;20045;-53
2023/12/04 10:52:36;;;;;;;8.73;5.80;;;7.70;96.70;;;;;;4843777;29;20064;-53
2023/12/04 10:55:07;;;;;;;6.75;5.32;;;7.70;96.70;;;;;;4819494;29;20050;-54
2023/12/04 10:57:39;;;;;;;8.25;5.53;;;7.70;96.70;;;;;;4837822;29;20061;-53
2023/12/04 11:00:11;;;;;;;7.93;5.20;;;7.80;96.70;;;;;;4824810;29;20064;-54
2023/12/04 11:02:49;;;;;;;9.20;6.05;;;7.90;96.70;;;;;;4848552;29;20058;-54
2023/12/04 11:05:23;;;;;;;9.25;6.50;;;7.90;96.70;;;;;;4842978;29;20505;-54
2023/12/04 11:07:57;;;;;;;6.90;5.32;;;7.90;96.70;;;;;;4832757;29;20197;-54
2023/12/04 11:10:52;;;;;;;8.15;6.15;;;7.90;96.70;;;;;;4825486;29;20053;-54
2023/12/04 11:13:27;;;;;;;8.80;6.25;;;7.90;96.70;;;;;;4810471;29;20115;-54
2023/12/04 11:16:01;;;;;;;;;;;7.90;96.70;;;;;;4826610;29;20046;-54
2023/12/04 11:18:35;;;;;;;9.45;6.00;;;7.90;96.70;;;;;;4840562;29;20361;-54
2023/12/04 11:21:07;;;;;;;10.05;6.78;;;8.00;96.70;;;;;;4824881;29;20065;-54
2023/12/04 11:23:38;;;;;;;12.00;7.55;;;8.00;96.70;;;;;;4839607;29;20046;-54
2023/12/04 11:26:10;;;;;;;10.65;7.53;;;8.00;96.70;;;;;;4814184;29;20076;-57
2023/12/04 11:28:39;;;;;;;11.77;7.07;;;8.00;96.70;;;;;;4838892;29;20066;-54
2023/12/04 11:31:09;;;;;;;13.52;7.57;;;7.90;96.70;;;;;;4824556;29;20112;-57
2023/12/04 11:33:39;;;;;;;11.27;7.90;;;8.00;96.70;;;;;;4824661;29;20058;-55
2023/12/04 11:36:11;;;;;;;16.45;9.45;;;8.00;96.70;;;;;;4824225;29;20048;-53
2023/12/04 11:38:47;;;;;;;16.63;9.85;;;8.00;96.70;;;;;;4822804;29;20058;-54
2023/12/04 11:41:17;;;;;;;14.80;9.85;;;8.00;96.70;;;;;;4821086;29;20150;-54
2023/12/04 11:43:52;;;;;;;15.85;10.10;;;8.00;96.70;;;;;;4832874;29;20066;-53
2023/12/04 11:46:23;;;;;;;16.90;11.43;;;7.90;96.70;;;;;;4805664;29;20199;-54
2023/12/04 11:48:55;;;;;;;21.55;12.13;;;7.90;96.70;;;;;;4827002;29;20054;-53
2023/12/04 11:51:47;;;;;;;23.80;13.60;;;7.80;96.70;;;;;;4824014;29;20114;-53
2023/12/04 11:54:17;;;;;;;20.23;12.80;;;7.80;96.70;;;;;;4824286;29;20058;-53
2023/12/04 11:57:20;;;;;;;25.92;13.60;;;7.80;96.70;;;;;;4808335;29;20517;-54
2023/12/04 11:59:51;;;;;;;20.02;12.48;;;7.70;96.70;;;;;;4822024;29;20058;-54
2023/12/04 12:02:22;;;;;;;19.48;11.80;;;7.80;96.70;;;;;;4854196;29;20050;-53
2023/12/04 12:04:51;;;;;;;17.17;9.82;;;7.80;96.70;;;;;;4808700;29;20066;-53
2023/12/04 12:07:22;;;;;;;16.83;9.15;;;7.80;96.70;;;;;;4821315;29;20069;-53
2023/12/04 12:09:51;;;;;;;17.52;10.73;;;7.70;96.70;;;;;;4817476;29;20157;-53
2023/12/04 12:12:20;;;;;;;16.98;9.90;;;7.60;96.70;;;;;;4822448;29;20182;-53
2023/12/04 12:14:49;;;;;;;17.88;9.77;;;7.70;96.70;;;;;;4813835;29;20042;-54
2023/12/04 12:17:18;;;;;;;19.88;10.02;;;7.60;96.70;;;;;;4808917;29;20050;-53
2023/12/04 12:19:48;;;;;;;18.95;11.02;;;7.60;96.70;;;;;;4823947;29;20422;-53
2023/12/04 12:22:19;;;;;;;17.23;10.93;;;7.60;96.70;;;;;;4809264;29;20073;-54
2023/12/04 12:24:50;;;;;;;17.17;10.27;;;7.60;96.70;;;;;;4808877;29;20132;-53
2023/12/04 12:27:18;;;;;;;17.85;10.20;;;7.60;96.70;;;;;;4807667;29;20053;-53
2023/12/04 12:29:47;;;;;;;16.85;10.93;;;7.60;96.70;;;;;;4808072;29;20057;-54
2023/12/04 12:32:16;;;;;;;17.48;11.30;;;7.60;96.70;;;;;;4823529;29;20057;-54
2023/12/04 12:34:46;;;;;;;16.27;10.20;;;7.70;96.70;;;;;;4834714;29;20062;-54
2023/12/04 12:37:16;;;;;;;18.08;11.60;;;7.70;96.70;;;;;;4818255;29;20239;-53
2023/12/04 12:39:45;;;;;;;19.70;11.70;;;7.80;96.70;;;;;;4823429;29;20046;-53
2023/12/04 12:42:22;;;;;;;19.33;10.52;;;7.80;96.70;;;;;;4847417;29;20050;-54
2023/12/04 12:44:52;;;;;;;16.33;10.25;;;7.80;96.70;;;;;;4800139;29;20077;-53
2023/12/04 12:47:20;;;;;;;16.83;10.77;;;7.80;96.70;;;;;;4818828;29;20394;-53
2023/12/04 12:49:50;;;;;;;32.45;19.95;;;7.80;96.70;;;;;;4803097;29;20390;-54
2023/12/04 12:52:20;;;;;;;17.75;11.93;;;7.80;96.70;;;;;;4815856;29;20054;-52
2023/12/04 12:54:49;;;;;;;16.77;11.60;;;7.80;96.70;;;;;;4821240;29;20146;-53
2023/12/04 12:57:18;;;;;;;19.00;12.05;;;7.70;96.70;;;;;;4819851;29;20055;-53
2023/12/04 12:59:46;;;;;;;21.42;13.00;;;7.70;96.70;;;;;;4804473;29;20106;-53
2023/12/04 13:02:16;;;;;;;33.00;22.55;;;7.80;96.70;;;;;;4803402;29;20106;-54
2023/12/04 13:04:45;;;;;;;24.13;15.43;;;7.80;96.70;;;;;;4820394;29;20075;-53
2023/12/04 13:07:16;;;;;;;20.35;12.73;;;7.70;96.70;;;;;;4822508;29;20149;-53
2023/12/04 13:09:46;;;;;;;17.52;12.32;;;7.80;96.70;;;;;;4807509;29;20050;-54
2023/12/04 13:12:14;;;;;;;23.65;13.68;;;7.80;96.70;;;;;;4804844;29;20054;-54
2023/12/04 13:14:43;;;;;;;24.17;15.02;;;7.80;96.70;;;;;;4808221;29;20056;-54
2023/12/04 13:17:12;;;;;;;21.38;12.40;;;7.80;96.70;;;;;;4853156;29;20066;-53